Kristiansund Airport, Kvernberget


Codes: ENKB/KSU
Name: Kristiansund Airport, Kvernberget
City: Kvernberget
Country: Norway
Elevation: 204 ft.
Website:
Wikipedia:

Photos at Kristiansund Airport, Kvernberget


   Photos courtesy of SpottingLog. You can add your own sightings and photos by signing up for a free trial today.



No photos found.

Weather at Kristiansund Airport, Kvernberget


Time (UTC)DescriptionTempratureWindCloud coverageVisibilityPressureHumidity
23-May-2024 18:00Clear Sky20°C9 mph, N0%10000m1016hPa45%
23-May-2024 21:00Scattered Clouds17°C2 mph, N33%10000m1017hPa57%
24-May-2024 00:00Broken Clouds13°C9 mph, N63%8479m1018hPa79%
24-May-2024 03:00Scattered Clouds9°C7 mph, NE47%10000m1018hPa94%
24-May-2024 06:00Scattered Clouds9°C11 mph, NE40%7677m1019hPa96%
24-May-2024 09:00Scattered Clouds9°C7 mph, NE50%6765m1020hPa90%
24-May-2024 12:00Scattered Clouds10°C11 mph, N46%10000m1020hPa89%
24-May-2024 15:00Clear Sky10°C9 mph, N7%10000m1022hPa86%
24-May-2024 18:00Few Clouds9°C9 mph, N22%10000m1024hPa89%
24-May-2024 21:00Scattered Clouds9°C4 mph, NE32%10000m1025hPa84%
25-May-2024 00:00Few Clouds9°C7 mph, NE21%10000m1025hPa84%
25-May-2024 03:00Scattered Clouds9°C7 mph, NE35%10000m1024hPa83%
25-May-2024 06:00Few Clouds9°C4 mph, NE23%10000m1024hPa81%
25-May-2024 09:00Clear Sky10°C4 mph, N6%10000m1023hPa78%
25-May-2024 12:00Clear Sky10°C2 mph, N8%10000m1022hPa81%
25-May-2024 15:00Scattered Clouds13°C7 mph, N28%10000m1020hPa74%
25-May-2024 18:00Scattered Clouds14°C2 mph, N45%10000m1019hPa72%
25-May-2024 21:00Scattered Clouds14°C2 mph, SE44%10000m1019hPa72%
26-May-2024 00:00Few Clouds14°C7 mph, SE24%10000m1017hPa69%
26-May-2024 03:00Clear Sky14°C9 mph, S5%10000m1017hPa71%
26-May-2024 06:00Clear Sky12°C9 mph, W5%10000m1019hPa83%
26-May-2024 09:00Clear Sky10°C7 mph, NW6%10000m1019hPa92%
26-May-2024 12:00Few Clouds9°C2 mph, N24%0m1019hPa95%
26-May-2024 15:00Light Rain11°C4 mph, N56%10000m1017hPa92%
26-May-2024 18:00Light Rain11°C4 mph, NW42%8703m1015hPa91%
26-May-2024 21:00Light Rain13°C13 mph, W92%10000m1015hPa89%
27-May-2024 00:00Light Rain10°C7 mph, W97%10000m1016hPa96%
27-May-2024 03:00Overcast Clouds11°C4 mph, SW100%10000m1016hPa94%
27-May-2024 06:00Broken Clouds11°C4 mph, W76%10000m1017hPa93%
27-May-2024 09:00Broken Clouds10°C2 mph, NE81%7419m1018hPa97%
27-May-2024 12:00Overcast Clouds10°C4 mph, N92%0m1017hPa98%
27-May-2024 15:00Light Rain11°C7 mph, N78%3337m1015hPa96%
27-May-2024 18:00Light Rain12°C7 mph, N86%4595m1014hPa93%
27-May-2024 21:00Light Rain11°C7 mph, NW97%6545m1014hPa95%
28-May-2024 00:00Light Rain10°C4 mph, W97%10000m1013hPa95%
28-May-2024 03:00Overcast Clouds11°C9 mph, SW99%10000m1015hPa97%
28-May-2024 06:00Light Rain11°C4 mph, SW100%10000m1015hPa95%
28-May-2024 09:00Light Rain11°C2 mph, E97%10000m1016hPa92%
28-May-2024 12:00Overcast Clouds12°C9 mph, NE94%10000m1015hPa88%
28-May-2024 15:00Overcast Clouds11°C9 mph, N100%10000m1014hPa92%